Terminal Aerodrome Forecast
Issued by NWS Brownsville, TX

Home | Current Version | Previous Version | Text Only | Print | Product List | Glossary On
Versions: 1 2 3 4 5 6 7 8 9 10 11 12 13 14 15 16
000
FTUS44 KBRO 251200 AAA
TAFMFE
TAF AMD
KMFE 251231Z 2513/2612 14004KT P6SM SCT250
     FM251400 17010KT P6SM SCT250
     FM251700 16017G23KT P6SM SCT250
     FM252000 15022G29KT P6SM SCT250
     FM260300 15013KT P6SM SCT050 BKN250
     FM260900 15008KT P6SM SCT050 BKN100=

USA.gov is the U.S. government's official web portal to all federal, state and local government web resources and services.